sensor_id;sensor_type;location;lat;lon;timestamp;temperature;humidity
8778;DHT22;4425;50.872;4.712;2024-01-07T01:21:52;3.40;99.90
8778;DHT22;4425;50.872;4.712;2024-01-07T01:24:19;3.40;99.90
8778;DHT22;4425;50.872;4.712;2024-01-07T01:26:46;3.30;99.90
8778;DHT22;4425;50.872;4.712;2024-01-07T01:29:13;3.30;99.90
8778;DHT22;4425;50.872;4.712;2024-01-07T01:31:40;3.20;99.90
8778;DHT22;4425;50.872;4.712;2024-01-07T01:34:07;3.20;99.90
8778;DHT22;4425;50.872;4.712;2024-01-07T01:36:35;3.20;99.90
8778;DHT22;4425;50.872;4.712;2024-01-07T01:39:04;3.20;99.90
8778;DHT22;4425;50.872;4.712;2024-01-07T01:41:32;3.20;99.90
8778;DHT22;4425;50.872;4.712;2024-01-07T01:44:00;3.20;99.90
8778;DHT22;4425;50.872;4.712;2024-01-07T01:46:30;3.20;99.90
8778;DHT22;4425;50.872;4.712;2024-01-07T01:48:59;3.30;99.90
8778;DHT22;4425;50.872;4.712;2024-01-07T01:51:27;3.20;99.90
8778;DHT22;4425;50.872;4.712;2024-01-07T01:53:55;3.30;99.90
8778;DHT22;4425;50.872;4.712;2024-01-07T01:56:33;3.30;99.90
8778;DHT22;4425;50.872;4.712;2024-01-07T01:59:00;3.20;99.90
8778;DHT22;4425;50.872;4.712;2024-01-07T02:01:29;3.10;99.90
8778;DHT22;4425;50.872;4.712;2024-01-07T02:03:58;3.10;99.90
8778;DHT22;4425;50.872;4.712;2024-01-07T02:06:25;3.20;99.90
8778;DHT22;4425;50.872;4.712;2024-01-07T02:08:53;3.10;99.90
8778;DHT22;4425;50.872;4.712;2024-01-07T02:11:33;3.20;99.90
8778;DHT22;4425;50.872;4.712;2024-01-07T02:14:06;3.10;99.90
8778;DHT22;4425;50.872;4.712;2024-01-07T02:16:34;3.10;99.90
8778;DHT22;4425;50.872;4.712;2024-01-07T02:19:02;3.00;99.90
8778;DHT22;4425;50.872;4.712;2024-01-07T02:21:30;3.00;99.90
8778;DHT22;4425;50.872;4.712;2024-01-07T02:24:07;3.00;99.90
8778;DHT22;4425;50.872;4.712;2024-01-07T02:26:41;3.00;99.90
8778;DHT22;4425;50.872;4.712;2024-01-07T02:29:09;3.00;99.90
8778;DHT22;4425;50.872;4.712;2024-01-07T02:31:40;3.00;99.90
8778;DHT22;4425;50.872;4.712;2024-01-07T02:34:12;3.00;99.90
8778;DHT22;4425;50.872;4.712;2024-01-07T02:36:46;2.90;99.90
8778;DHT22;4425;50.872;4.712;2024-01-07T02:39:18;2.90;99.90
8778;DHT22;4425;50.872;4.712;2024-01-07T02:41:49;2.90;99.90
8778;DHT22;4425;50.872;4.712;2024-01-07T02:44:18;2.90;99.90
8778;DHT22;4425;50.872;4.712;2024-01-07T02:46:50;2.80;99.90
8778;DHT22;4425;50.872;4.712;2024-01-07T02:49:18;2.90;99.90
8778;DHT22;4425;50.872;4.712;2024-01-07T02:51:45;2.80;99.90
8778;DHT22;4425;50.872;4.712;2024-01-07T02:56:59;2.90;99.90
8778;DHT22;4425;50.872;4.712;2024-01-07T02:59:27;2.90;99.90
8778;DHT22;4425;50.872;4.712;2024-01-07T03:01:55;2.90;99.90
8778;DHT22;4425;50.872;4.712;2024-01-07T03:04:25;2.90;99.90
8778;DHT22;4425;50.872;4.712;2024-01-07T03:06:53;2.90;99.90
8778;DHT22;4425;50.872;4.712;2024-01-07T03:09:21;2.90;99.90
8778;DHT22;4425;50.872;4.712;2024-01-07T03:11:49;2.90;99.90
8778;DHT22;4425;50.872;4.712;2024-01-07T03:14:18;2.90;99.90
8778;DHT22;4425;50.872;4.712;2024-01-07T03:16:47;2.80;99.90
8778;DHT22;4425;50.872;4.712;2024-01-07T03:19:20;2.90;99.90
8778;DHT22;4425;50.872;4.712;2024-01-07T03:21:48;2.80;99.90
8778;DHT22;4425;50.872;4.712;2024-01-07T03:24:16;2.80;99.90
8778;DHT22;4425;50.872;4.712;2024-01-07T03:26:58;2.80;99.90
8778;DHT22;4425;50.872;4.712;2024-01-07T03:29:41;2.70;99.90
8778;DHT22;4425;50.872;4.712;2024-01-07T03:32:09;2.70;99.90
8778;DHT22;4425;50.872;4.712;2024-01-07T03:34:39;2.70;99.90
8778;DHT22;4425;50.872;4.712;2024-01-07T03:37:20;2.70;99.90
8778;DHT22;4425;50.872;4.712;2024-01-07T03:39:49;2.70;99.90
8778;DHT22;4425;50.872;4.712;2024-01-07T03:42:30;2.70;99.90
8778;DHT22;4425;50.872;4.712;2024-01-07T03:45:00;2.70;99.90
8778;DHT22;4425;50.872;4.712;2024-01-07T03:47:35;2.70;99.90
8778;DHT22;4425;50.872;4.712;2024-01-07T03:50:03;2.70;99.90
8778;DHT22;4425;50.872;4.712;2024-01-07T03:52:31;2.60;99.90
8778;DHT22;4425;50.872;4.712;2024-01-07T03:54:58;2.70;99.90
8778;DHT22;4425;50.872;4.712;2024-01-07T03:57:26;2.60;99.90
8778;DHT22;4425;50.872;4.712;2024-01-07T03:59:53;2.60;99.90
8778;DHT22;4425;50.872;4.712;2024-01-07T04:02:33;2.70;99.90
8778;DHT22;4425;50.872;4.712;2024-01-07T04:05:00;2.70;99.90
8778;DHT22;4425;50.872;4.712;2024-01-07T04:07:29;2.60;99.90
8778;DHT22;4425;50.872;4.712;2024-01-07T04:09:57;2.60;99.90
8778;DHT22;4425;50.872;4.712;2024-01-07T04:12:29;2.60;99.90
8778;DHT22;4425;50.872;4.712;2024-01-07T04:14:57;2.60;99.90
8778;DHT22;4425;50.872;4.712;2024-01-07T04:17:43;2.60;99.90
8778;DHT22;4425;50.872;4.712;2024-01-07T16:03:20;1.30;99.90
8778;DHT22;4425;50.872;4.712;2024-01-07T16:05:51;1.20;99.90
8778;DHT22;4425;50.872;4.712;2024-01-07T16:08:19;1.20;99.90
8778;DHT22;4425;50.872;4.712;2024-01-07T16:10:47;1.20;99.90
8778;DHT22;4425;50.872;4.712;2024-01-07T16:13:15;1.10;99.90
8778;DHT22;4425;50.872;4.712;2024-01-07T16:15:43;1.10;99.90
8778;DHT22;4425;50.872;4.712;2024-01-07T16:18:10;1.10;99.90
8778;DHT22;4425;50.872;4.712;2024-01-07T16:20:39;1.20;99.90
8778;DHT22;4425;50.872;4.712;2024-01-07T16:23:07;1.10;99.90
8778;DHT22;4425;50.872;4.712;2024-01-07T16:25:36;1.10;99.90
8778;DHT22;4425;50.872;4.712;2024-01-07T16:28:04;1.00;99.90
8778;DHT22;4425;50.872;4.712;2024-01-07T16:30:35;1.00;99.90
8778;DHT22;4425;50.872;4.712;2024-01-07T16:33:06;1.00;99.90
8778;DHT22;4425;50.872;4.712;2024-01-07T16:35:49;1.00;99.90
8778;DHT22;4425;50.872;4.712;2024-01-07T16:38:20;1.00;99.90
8778;DHT22;4425;50.872;4.712;2024-01-07T16:41:02;0.90;99.90
8778;DHT22;4425;50.872;4.712;2024-01-07T16:43:34;0.90;99.90
8778;DHT22;4425;50.872;4.712;2024-01-07T16:46:15;0.80;99.90
8778;DHT22;4425;50.872;4.712;2024-01-07T16:48:51;0.90;99.90
8778;DHT22;4425;50.872;4.712;2024-01-07T16:51:28;0.90;99.90
8778;DHT22;4425;50.872;4.712;2024-01-07T22:09:38;-0.70;99.90
8778;DHT22;4425;50.872;4.712;2024-01-07T22:12:06;-0.70;99.90
8778;DHT22;4425;50.872;4.712;2024-01-07T22:14:33;-0.70;99.90
8778;DHT22;4425;50.872;4.712;2024-01-07T22:17:00;-0.70;99.90
8778;DHT22;4425;50.872;4.712;2024-01-07T22:19:27;-0.80;99.90
8778;DHT22;4425;50.872;4.712;2024-01-07T22:21:54;-0.80;99.90
8778;DHT22;4425;50.872;4.712;2024-01-07T22:24:21;-0.90;99.90
8778;DHT22;4425;50.872;4.712;2024-01-07T22:26:49;-0.80;99.90
8778;DHT22;4425;50.872;4.712;2024-01-07T22:29:16;-0.80;99.90
8778;DHT22;4425;50.872;4.712;2024-01-07T22:31:46;-0.80;99.90
8778;DHT22;4425;50.872;4.712;2024-01-07T22:34:13;-0.70;99.90
8778;DHT22;4425;50.872;4.712;2024-01-07T22:36:40;-0.80;99.90
8778;DHT22;4425;50.872;4.712;2024-01-07T22:39:07;-0.90;99.90
8778;DHT22;4425;50.872;4.712;2024-01-07T22:41:38;-0.90;99.90
8778;DHT22;4425;50.872;4.712;2024-01-07T22:44:09;-0.90;99.90
8778;DHT22;4425;50.872;4.712;2024-01-07T22:46:42;-0.90;99.90
8778;DHT22;4425;50.872;4.712;2024-01-07T22:49:10;-0.90;99.90
8778;DHT22;4425;50.872;4.712;2024-01-07T22:51:40;-0.90;99.90
8778;DHT22;4425;50.872;4.712;2024-01-07T22:54:08;-1.00;99.90
8778;DHT22;4425;50.872;4.712;2024-01-07T22:56:39;-1.00;99.90
8778;DHT22;4425;50.872;4.712;2024-01-07T22:59:08;-0.80;99.90
8778;DHT22;4425;50.872;4.712;2024-01-07T23:01:36;-1.00;99.90
8778;DHT22;4425;50.872;4.712;2024-01-07T23:04:05;-1.00;99.90
8778;DHT22;4425;50.872;4.712;2024-01-07T23:06:32;-1.00;99.90
8778;DHT22;4425;50.872;4.712;2024-01-07T23:09:00;-1.00;99.90
8778;DHT22;4425;50.872;4.712;2024-01-07T23:11:27;-1.00;99.90
8778;DHT22;4425;50.872;4.712;2024-01-07T23:13:54;-1.10;99.90
8778;DHT22;4425;50.872;4.712;2024-01-07T23:16:22;-1.10;99.90
8778;DHT22;4425;50.872;4.712;2024-01-07T23:18:51;-1.10;99.90
8778;DHT22;4425;50.872;4.712;2024-01-07T23:21:20;-1.10;99.90
8778;DHT22;4425;50.872;4.712;2024-01-07T23:23:49;-1.10;99.90
8778;DHT22;4425;50.872;4.712;2024-01-07T23:26:16;-1.10;99.90
8778;DHT22;4425;50.872;4.712;2024-01-07T23:28:46;-1.10;99.90
8778;DHT22;4425;50.872;4.712;2024-01-07T23:31:13;-1.20;99.90
8778;DHT22;4425;50.872;4.712;2024-01-07T23:33:44;-1.20;99.90
8778;DHT22;4425;50.872;4.712;2024-01-07T23:36:12;-1.10;99.90
8778;DHT22;4425;50.872;4.712;2024-01-07T23:38:39;-1.10;99.90
8778;DHT22;4425;50.872;4.712;2024-01-07T23:41:07;-1.10;99.90
8778;DHT22;4425;50.872;4.712;2024-01-07T23:43:35;-1.10;99.90
8778;DHT22;4425;50.872;4.712;2024-01-07T23:46:03;-1.10;99.90
8778;DHT22;4425;50.872;4.712;2024-01-07T23:48:32;-1.00;99.90
8778;DHT22;4425;50.872;4.712;2024-01-07T23:51:01;-1.00;99.90
8778;DHT22;4425;50.872;4.712;2024-01-07T23:53:35;-0.90;99.90
8778;DHT22;4425;50.872;4.712;2024-01-07T23:56:05;-1.00;99.90
8778;DHT22;4425;50.872;4.712;2024-01-07T23:58:32;-0.90;99.90
